Wickes, Arkansas
Current Conditions -  °F | °C
As of 3:09 AM on Wednesday 26 Nov 2014 (Local Time) from KDEQ Reporting Station
Haze Haze  
Wind Chill: 33°   Ceiling: Unl
Heat Index: 33°   Visibility: 1.7mi
Dew Point: 32°   Wind: 0mph
Humidity: 96%   Direction: NA
Pressure: 30.08"   Gusts: NA
Location:  34.3°N, 94.34°W
Report Text: KDEQ 260909Z AUTO 00000KT 1 3/4SM BR CLR 01/00 A3008 RMK AO2 T00060000
Loading
Personal Weather Stations






























Interactive Weather Map New forecast layout! Learn more

10-Day Weather Forecast

Advertisements
Track Severe Weather on mobile